createdAt,value
2019-04-14T00:01:21.804Z,78.70
2019-04-14T00:04:14.668Z,77.70
2019-04-14T00:06:44.141Z,77.80
2019-04-14T00:09:14.695Z,78.20
2019-04-14T00:11:41.652Z,77.90
2019-04-14T00:14:09.769Z,78.00
2019-04-14T00:16:38.033Z,78.20
2019-04-14T00:19:06.526Z,79.00
2019-04-14T00:21:34.606Z,79.20
2019-04-14T00:24:03.087Z,79.20
2019-04-14T00:26:31.530Z,79.00
2019-04-14T00:29:00.095Z,79.40
2019-04-14T00:31:28.563Z,79.00
2019-04-14T00:33:58.961Z,78.90
2019-04-14T00:36:58.850Z,78.80
2019-04-14T00:39:32.168Z,79.60
2019-04-14T00:42:17.355Z,79.30
2019-04-14T00:44:51.811Z,78.60
2019-04-14T00:47:51.917Z,78.90
2019-04-14T00:50:12.445Z,79.20
2019-04-14T00:52:40.120Z,79.30
2019-04-14T00:55:07.668Z,79.40
2019-04-14T00:57:35.549Z,79.20
2019-04-14T01:00:05.991Z,78.50
2019-04-14T01:02:34.004Z,78.60
2019-04-14T01:05:02.561Z,78.10
2019-04-14T01:07:30.535Z,78.50
2019-04-14T01:09:57.989Z,78.70
2019-04-14T01:12:25.834Z,78.40
2019-04-14T01:14:53.895Z,78.70
2019-04-14T01:17:22.041Z,78.40
2019-04-14T01:19:50.540Z,77.90
2019-04-14T01:22:18.385Z,78.20
2019-04-14T01:24:46.828Z,77.70
2019-04-14T01:27:14.606Z,77.90
2019-04-14T01:29:42.741Z,78.00
2019-04-14T01:32:11.222Z,78.10
2019-04-14T01:34:39.133Z,78.40
2019-04-14T01:37:07.302Z,78.50
2019-04-14T01:39:35.275Z,78.70
2019-04-14T01:42:03.008Z,78.10
2019-04-14T01:44:30.731Z,78.10
2019-04-14T01:46:58.833Z,78.30
2019-04-14T01:49:26.892Z,78.70
2019-04-14T01:52:16.894Z,78.20
2019-04-14T01:54:53.809Z,78.00
2019-04-14T01:57:39.387Z,77.90
2019-04-14T02:00:45.178Z,78.10
2019-04-14T02:03:12.782Z,78.10
2019-04-14T02:05:40.695Z,77.70
2019-04-14T02:08:09.085Z,77.70
2019-04-14T02:10:36.859Z,77.80
2019-04-14T02:13:04.994Z,78.10
2019-04-14T02:15:33.056Z,77.60
2019-04-14T02:18:00.954Z,77.10
2019-04-14T02:20:29.596Z,77.10
2019-04-14T02:22:57.394Z,77.60
2019-04-14T02:25:25.304Z,77.40
2019-04-14T02:27:53.687Z,77.70
2019-04-14T02:30:26.173Z,78.20
2019-04-14T02:35:58.937Z,77.50
2019-04-14T02:38:29.169Z,77.30
2019-04-14T02:40:57.962Z,77.70
2019-04-14T02:43:25.677Z,77.60
2019-04-14T02:45:52.037Z,78.20
2019-04-14T02:48:31.506Z,78.30
2019-04-14T02:50:38.276Z,78.20
2019-04-14T02:53:20.880Z,78.40
2019-04-14T02:55:42.543Z,78.90
2019-04-14T02:58:16.263Z,78.60
2019-04-14T03:00:43.635Z,78.30
2019-04-14T03:03:10.534Z,78.30
2019-04-14T03:05:44.746Z,77.60
2019-04-14T03:08:08.020Z,77.90
2019-04-14T03:10:40.248Z,77.80
2019-04-14T03:13:09.414Z,78.10
2019-04-14T03:18:31.972Z,76.80
2019-04-14T03:21:14.028Z,77.10
2019-04-14T03:23:52.804Z,77.00
2019-04-14T03:26:17.714Z,77.20
2019-04-14T03:28:51.282Z,77.30
2019-04-14T03:31:51.826Z,77.70
2019-04-14T03:34:13.380Z,77.80
2019-04-14T03:37:08.002Z,77.30
2019-04-14T03:41:27.358Z,77.40
2019-04-14T03:43:41.413Z,77.30
2019-04-14T03:46:39.715Z,78.00
2019-04-14T03:51:24.475Z,77.60
2019-04-14T03:53:39.863Z,77.90
2019-04-14T03:56:27.019Z,77.30
2019-04-14T03:58:55.383Z,78.10
2019-04-14T04:01:23.732Z,77.70
2019-04-14T04:03:52.170Z,77.70
2019-04-14T04:06:20.356Z,77.50
2019-04-14T04:08:48.515Z,77.00
2019-04-14T04:11:17.137Z,77.00
2019-04-14T04:13:45.547Z,77.10
2019-04-14T04:16:20.207Z,76.80
2019-04-14T04:18:57.978Z,75.90
2019-04-14T04:21:36.314Z,76.20
2019-04-14T04:24:23.566Z,76.50
2019-04-14T04:27:04.638Z,76.50
2019-04-14T04:29:50.592Z,76.30
2019-04-14T04:32:28.132Z,76.40
2019-04-14T04:35:15.334Z,77.00
2019-04-14T04:37:56.346Z,76.70
2019-04-14T04:40:26.915Z,77.40
2019-04-14T04:42:54.811Z,76.80
2019-04-14T04:45:23.431Z,77.50
2019-04-14T04:47:51.317Z,78.20
2019-04-14T04:50:19.333Z,78.50
2019-04-14T04:52:47.547Z,77.50
2019-04-14T04:55:15.601Z,77.80
2019-04-14T04:57:43.804Z,77.20
2019-04-14T05:00:11.495Z,77.00
2019-04-14T05:02:39.566Z,76.30
2019-04-14T05:05:44.749Z,76.00
2019-04-14T05:08:13.087Z,76.00
2019-04-14T05:10:46.673Z,76.00
2019-04-14T05:13:18.873Z,75.70
2019-04-14T05:15:59.837Z,76.00
2019-04-14T05:18:28.860Z,76.40
2019-04-14T05:20:57.426Z,76.20
2019-04-14T05:23:25.630Z,76.50
2019-04-14T05:25:53.870Z,76.60
2019-04-14T05:28:22.082Z,75.10
2019-04-14T05:30:50.380Z,75.40
2019-04-14T05:33:18.560Z,76.00
2019-04-14T05:35:46.676Z,75.80
2019-04-14T05:38:14.724Z,75.50
2019-04-14T05:40:42.915Z,74.90
2019-04-14T05:43:11.354Z,74.90
2019-04-14T05:45:39.551Z,75.40
2019-04-14T05:48:07.486Z,74.90
2019-04-14T05:50:35.699Z,75.50
2019-04-14T05:53:04.258Z,75.20
2019-04-14T05:55:32.793Z,75.20
2019-04-14T05:58:01.330Z,75.10
2019-04-14T06:00:29.979Z,76.70
2019-04-14T06:02:57.518Z,75.70
2019-04-14T06:05:25.317Z,75.70
2019-04-14T06:07:55.381Z,75.70
2019-04-14T06:10:21.891Z,75.40
2019-04-14T06:12:49.351Z,75.20
2019-04-14T06:15:16.753Z,74.70
2019-04-14T06:17:44.049Z,75.50
2019-04-14T06:20:11.476Z,74.80
2019-04-14T06:22:38.886Z,74.80
2019-04-14T06:25:07.344Z,74.50
2019-04-14T06:27:35.768Z,74.40
2019-04-14T06:30:18.553Z,73.40
2019-04-14T06:32:46.033Z,73.40
2019-04-14T06:35:51.593Z,73.80
2019-04-14T06:38:24.691Z,73.20
2019-04-14T06:40:58.870Z,72.20
2019-04-14T06:43:26.277Z,73.20
2019-04-14T06:45:53.579Z,72.80
2019-04-14T06:48:20.943Z,71.40
2019-04-14T06:50:48.222Z,72.30
2019-04-14T06:53:15.551Z,73.00
2019-04-14T06:55:42.883Z,70.50
2019-04-14T06:58:10.352Z,70.20
2019-04-14T07:00:38.080Z,71.90
2019-04-14T07:03:05.518Z,71.30
2019-04-14T07:05:32.878Z,72.10
2019-04-14T07:08:00.302Z,72.80
2019-04-14T07:10:27.627Z,73.40
2019-04-14T07:12:55.093Z,72.90
2019-04-14T07:15:22.563Z,73.80
2019-04-14T07:17:50.014Z,72.80
2019-04-14T07:20:17.460Z,72.10
2019-04-14T07:22:44.758Z,71.80
2019-04-14T07:25:12.166Z,71.10
2019-04-14T07:27:39.795Z,69.80
2019-04-14T07:30:25.202Z,69.00
2019-04-14T07:32:59.062Z,70.40
2019-04-14T07:35:44.509Z,69.70
2019-04-14T07:38:19.649Z,70.80
2019-04-14T07:41:18.363Z,68.70
2019-04-14T07:44:05.218Z,67.80
2019-04-14T07:46:52.051Z,67.90
2019-04-14T07:49:29.492Z,67.50
2019-04-14T07:52:14.346Z,68.50
2019-04-14T07:55:06.781Z,68.40
2019-04-14T07:57:53.751Z,68.20
2019-04-14T08:00:31.256Z,67.50
2019-04-14T08:03:03.352Z,67.40
2019-04-14T08:05:33.980Z,67.00
2019-04-14T08:08:01.472Z,66.90
2019-04-14T08:10:29.259Z,66.60
2019-04-14T08:12:56.772Z,66.70
2019-04-14T08:15:24.242Z,67.20
2019-04-14T08:17:51.705Z,66.30
2019-04-14T08:20:27.293Z,65.60
2019-04-14T08:22:48.323Z,64.60
2019-04-14T08:25:15.658Z,66.00
2019-04-14T08:27:43.121Z,65.60
2019-04-14T08:30:10.931Z,67.20
2019-04-14T08:32:38.410Z,64.80
2019-04-14T08:35:06.010Z,63.60
2019-04-14T08:37:33.546Z,61.80
2019-04-14T08:40:01.045Z,61.60
2019-04-14T08:42:47.138Z,60.00
2019-04-14T08:45:20.692Z,57.50
2019-04-14T08:47:57.233Z,57.70
2019-04-14T08:50:56.339Z,57.00
2019-04-14T08:53:36.977Z,58.50
2019-04-14T08:56:13.722Z,59.70
2019-04-14T08:59:09.690Z,57.60
2019-04-14T09:01:55.152Z,58.60
2019-04-14T09:04:36.771Z,57.30
2019-04-14T09:07:39.033Z,59.90
2019-04-14T09:10:10.247Z,58.70
2019-04-14T09:12:39.331Z,58.90
2019-04-14T09:15:07.694Z,55.40
2019-04-14T09:17:35.403Z,55.90
2019-04-14T09:20:03.832Z,54.60
2019-04-14T09:22:31.254Z,52.70
2019-04-14T09:24:59.455Z,52.00
2019-04-14T09:27:26.873Z,54.70
2019-04-14T09:29:54.299Z,54.30
2019-04-14T09:32:22.211Z,55.90
2019-04-14T09:34:49.671Z,54.40
2019-04-14T09:37:17.059Z,55.90
2019-04-14T09:39:44.590Z,53.90
2019-04-14T09:42:12.048Z,54.10
2019-04-14T09:44:39.607Z,54.20
2019-04-14T09:47:07.073Z,53.10
2019-04-14T09:49:34.538Z,51.50
2019-04-14T09:52:02.091Z,51.70
2019-04-14T09:54:30.031Z,53.30
2019-04-14T09:56:58.309Z,53.00
2019-04-14T09:59:25.764Z,50.50
2019-04-14T10:01:53.256Z,49.30
2019-04-14T10:04:21.086Z,52.60
2019-04-14T10:06:48.646Z,51.60
2019-04-14T10:09:16.106Z,50.30
2019-04-14T10:11:48.800Z,49.20
2019-04-14T10:14:13.682Z,50.30
2019-04-14T10:16:41.854Z,49.00
2019-04-14T10:19:09.990Z,48.00
2019-04-14T10:21:38.267Z,48.00
2019-04-14T10:24:06.036Z,46.30
2019-04-14T10:26:34.304Z,46.30
2019-04-14T10:29:02.187Z,44.90
2019-04-14T10:31:30.055Z,43.00
2019-04-14T10:33:58.189Z,46.70
2019-04-14T10:36:26.029Z,45.70
2019-04-14T10:38:53.449Z,45.90
2019-04-14T10:41:20.957Z,44.80
2019-04-14T10:43:48.301Z,45.00
2019-04-14T10:46:15.665Z,45.20
2019-04-14T10:48:43.123Z,44.80
2019-04-14T10:51:10.547Z,45.10
2019-04-14T10:53:37.917Z,43.10
2019-04-14T10:56:05.237Z,42.80
2019-04-14T10:58:32.700Z,45.00
2019-04-14T11:01:00.080Z,44.70
2019-04-14T11:03:27.903Z,44.70
2019-04-14T11:06:01.065Z,41.80
2019-04-14T11:08:29.131Z,40.70
2019-04-14T11:10:57.264Z,39.40
2019-04-14T11:13:25.133Z,39.80
2019-04-14T11:15:53.264Z,39.60
2019-04-14T11:18:21.154Z,40.10
2019-04-14T11:20:49.633Z,42.20
2019-04-14T11:23:17.890Z,43.20
2019-04-14T11:25:46.202Z,44.10
2019-04-14T11:28:15.734Z,45.00
2019-04-14T11:30:43.892Z,44.80
2019-04-14T11:33:27.761Z,46.00
2019-04-14T11:36:13.489Z,46.80
2019-04-14T11:39:06.929Z,47.20
2019-04-14T11:41:35.095Z,48.60
2019-04-14T11:44:03.975Z,47.80
2019-04-14T11:46:32.451Z,49.00
2019-04-14T11:49:00.385Z,49.30
2019-04-14T11:51:28.351Z,48.30
2019-04-14T11:53:56.760Z,48.10
2019-04-14T11:56:24.991Z,48.10
2019-04-14T11:58:53.390Z,48.40
2019-04-14T12:01:39.784Z,48.40
2019-04-14T12:04:26.889Z,47.80
2019-04-14T12:07:13.594Z,48.20
2019-04-14T12:09:59.441Z,48.30
2019-04-14T12:12:27.839Z,48.70
2019-04-14T12:14:56.328Z,48.80
2019-04-14T12:17:23.753Z,48.70
2019-04-14T12:19:51.187Z,46.80
2019-04-14T12:22:18.568Z,47.00
2019-04-14T12:24:47.491Z,47.30
2019-04-14T12:27:16.270Z,47.50
2019-04-14T12:29:45.679Z,45.70
2019-04-14T12:32:15.076Z,45.40
2019-04-14T12:34:43.605Z,44.80
2019-04-14T12:37:11.792Z,46.00
2019-04-14T12:39:39.826Z,45.90
2019-04-14T12:42:36.372Z,45.90
2019-04-14T12:45:24.753Z,46.10
2019-04-14T12:48:11.071Z,46.50
2019-04-14T12:50:46.896Z,46.50
2019-04-14T12:53:15.673Z,46.00
2019-04-14T12:55:43.540Z,43.10
2019-04-14T12:58:12.468Z,43.50
2019-04-14T13:01:09.168Z,42.30
2019-04-14T13:03:41.724Z,41.30
2019-04-14T13:06:10.123Z,39.60
2019-04-14T13:08:38.072Z,38.30
2019-04-14T13:11:06.058Z,36.20
2019-04-14T13:13:33.508Z,35.00
2019-04-14T13:16:01.368Z,32.60
2019-04-14T13:18:28.736Z,31.10
2019-04-14T13:20:56.714Z,28.20
2019-04-14T13:23:24.097Z,28.50
2019-04-14T13:25:51.652Z,29.20
2019-04-14T13:28:19.182Z,28.20
2019-04-14T13:30:48.217Z,28.30
2019-04-14T13:33:15.708Z,29.50
2019-04-14T13:35:43.190Z,29.50
2019-04-14T13:38:10.739Z,29.00
2019-04-14T13:40:38.562Z,26.60
2019-04-14T13:43:06.084Z,26.80
2019-04-14T13:45:33.573Z,29.70
2019-04-14T13:48:01.093Z,29.60
2019-04-14T13:50:28.582Z,31.40
2019-04-14T13:52:56.144Z,32.60
2019-04-14T13:55:23.601Z,33.30
2019-04-14T13:57:51.079Z,32.00
2019-04-14T14:00:19.086Z,33.40
2019-04-14T14:02:46.585Z,33.90
2019-04-14T14:05:14.077Z,34.00
2019-04-14T14:07:41.467Z,33.20
2019-04-14T14:10:09.013Z,34.80
2019-04-14T14:12:48.977Z,35.90
2019-04-14T14:15:47.797Z,34.00
2019-04-14T14:18:43.674Z,34.60
2019-04-14T14:21:33.382Z,32.70
2019-04-14T14:24:32.795Z,33.70
2019-04-14T14:27:00.962Z,33.80
2019-04-14T14:29:28.774Z,33.90
2019-04-14T14:31:57.532Z,35.10
2019-04-14T14:34:25.832Z,35.60
2019-04-14T14:36:54.396Z,35.70
2019-04-14T14:39:22.508Z,37.00
2019-04-14T14:41:50.481Z,37.80
2019-04-14T14:44:19.004Z,36.40
2019-04-14T14:47:00.294Z,37.30
2019-04-14T14:49:47.300Z,36.60
2019-04-14T14:52:16.917Z,36.30
2019-04-14T14:54:45.033Z,36.90
2019-04-14T14:57:12.896Z,36.70
2019-04-14T14:59:40.846Z,35.00
2019-04-14T15:02:10.588Z,35.40
2019-04-14T15:04:39.118Z,36.60
2019-04-14T15:07:07.129Z,36.80
2019-04-14T15:09:34.985Z,38.00
2019-04-14T15:12:03.481Z,38.50
2019-04-14T15:14:31.822Z,38.70
2019-04-14T15:16:59.325Z,37.10
2019-04-14T15:19:27.277Z,36.70
2019-04-14T15:21:54.854Z,37.60
2019-04-14T15:24:23.558Z,38.20
2019-04-14T15:26:51.930Z,38.60
2019-04-14T15:29:20.007Z,38.40
2019-04-14T15:31:48.487Z,38.70
2019-04-14T15:34:16.180Z,38.40
2019-04-14T15:36:43.693Z,40.50
2019-04-14T15:39:11.186Z,40.40
2019-04-14T15:41:38.642Z,39.80
2019-04-14T15:44:06.252Z,39.60
2019-04-14T15:46:33.777Z,39.80
2019-04-14T15:49:01.311Z,39.30
2019-04-14T15:51:28.901Z,38.10
2019-04-14T15:53:56.365Z,39.70
2019-04-14T15:56:46.252Z,40.30
2019-04-14T15:59:42.239Z,40.00
2019-04-14T16:02:33.558Z,40.40
2019-04-14T16:05:13.277Z,41.40
2019-04-14T16:07:56.776Z,41.10
2019-04-14T16:10:35.039Z,43.40
2019-04-14T16:13:22.190Z,42.50
2019-04-14T16:16:08.937Z,43.70
2019-04-14T16:18:51.543Z,44.80
2019-04-14T16:21:19.084Z,45.00
2019-04-14T16:23:50.812Z,45.20
2019-04-14T16:26:36.958Z,45.00
2019-04-14T16:29:36.250Z,44.90
2019-04-14T16:32:11.875Z,45.90
2019-04-14T16:34:48.408Z,46.90
2019-04-14T16:37:16.138Z,47.00
2019-04-14T16:39:43.883Z,46.70
2019-04-14T16:42:11.290Z,47.20
2019-04-14T16:44:38.842Z,47.80
2019-04-14T16:47:06.262Z,47.10
2019-04-14T16:49:33.775Z,47.20
2019-04-14T16:52:20.956Z,47.80
2019-04-14T16:54:54.087Z,48.30
2019-04-14T16:57:41.579Z,48.60
2019-04-14T17:00:10.082Z,48.30
2019-04-14T17:02:37.847Z,49.90
2019-04-14T17:05:05.688Z,49.90
2019-04-14T17:07:33.283Z,50.40
2019-04-14T17:10:00.894Z,51.30
2019-04-14T17:12:28.676Z,51.50
2019-04-14T17:15:06.525Z,51.70
2019-04-14T17:17:56.652Z,50.40
2019-04-14T17:20:49.459Z,50.90
2019-04-14T17:23:30.812Z,52.00
2019-04-14T17:26:20.954Z,52.20
2019-04-14T17:29:05.299Z,53.60
2019-04-14T17:32:10.369Z,53.20
2019-04-14T17:34:52.158Z,53.20
2019-04-14T17:37:37.889Z,53.40
2019-04-14T17:40:36.150Z,53.70
2019-04-14T17:43:22.065Z,53.90
2019-04-14T17:46:09.871Z,54.30
2019-04-14T17:49:02.893Z,54.00
2019-04-14T17:51:36.259Z,53.70
2019-04-14T17:54:14.051Z,54.50
2019-04-14T17:56:47.146Z,54.60
2019-04-14T17:59:24.147Z,55.50
2019-04-14T18:02:11.171Z,55.70
2019-04-14T18:05:03.342Z,55.10
2019-04-14T18:07:50.759Z,55.10
2019-04-14T18:10:46.822Z,55.80
2019-04-14T18:13:40.082Z,56.60
2019-04-14T18:16:25.970Z,56.70
2019-04-14T18:19:19.434Z,57.10
2019-04-14T18:22:00.943Z,57.40
2019-04-14T18:24:41.221Z,57.10
2019-04-14T18:26:57.871Z,57.00
2019-04-14T18:29:33.835Z,57.30
2019-04-14T18:32:27.251Z,57.30
2019-04-14T18:35:08.530Z,57.50
2019-04-14T18:37:59.350Z,58.30
2019-04-14T18:40:47.849Z,58.50
2019-04-14T18:43:29.604Z,58.60
2019-04-14T18:46:02.853Z,59.00
2019-04-14T18:48:34.147Z,58.50
2019-04-14T18:51:31.014Z,57.80
2019-04-14T18:54:06.098Z,58.10
2019-04-14T18:57:11.745Z,58.40
2019-04-14T18:59:57.784Z,58.20
2019-04-14T19:02:25.425Z,58.30
2019-04-14T19:04:53.179Z,58.80
2019-04-14T19:07:20.826Z,58.70
2019-04-14T19:09:48.360Z,58.60
2019-04-14T19:12:38.424Z,58.30
2019-04-14T19:15:25.664Z,59.20
2019-04-14T19:18:07.074Z,59.20
2019-04-14T19:20:35.119Z,59.60
2019-04-14T19:23:03.298Z,60.10
2019-04-14T19:25:31.414Z,59.80
2019-04-14T19:27:59.416Z,60.10
2019-04-14T19:30:27.315Z,60.00
2019-04-14T19:32:55.207Z,59.60
2019-04-14T19:35:22.804Z,60.00
2019-04-14T19:37:50.848Z,60.00
2019-04-14T19:40:19.278Z,60.10
2019-04-14T19:42:47.261Z,60.10
2019-04-14T19:45:16.340Z,60.10
2019-04-14T19:47:44.642Z,60.20
2019-04-14T19:50:12.391Z,60.20
2019-04-14T19:52:40.272Z,60.20
2019-04-14T19:55:19.779Z,60.60
2019-04-14T19:57:37.685Z,61.40
2019-04-14T20:00:05.717Z,61.20
2019-04-14T20:02:33.429Z,61.60
2019-04-14T20:05:01.136Z,62.20
2019-04-14T20:07:28.727Z,62.10
2019-04-14T20:09:56.203Z,62.00
2019-04-14T20:12:23.658Z,62.40
2019-04-14T20:14:51.166Z,62.40
2019-04-14T20:17:28.794Z,62.20
2019-04-14T20:20:04.011Z,61.90
2019-04-14T20:23:00.243Z,61.40
2019-04-14T20:26:05.208Z,62.20
2019-04-14T20:28:40.327Z,62.60
2019-04-14T20:31:19.119Z,62.40
2019-04-14T20:33:46.983Z,63.40
2019-04-14T20:36:14.440Z,64.10
2019-04-14T20:38:42.297Z,63.40
2019-04-14T20:41:09.805Z,63.70
2019-04-14T20:43:37.237Z,64.20
2019-04-14T20:46:04.656Z,64.30
2019-04-14T20:48:32.480Z,64.00
2019-04-14T20:51:00.017Z,63.70
2019-04-14T20:53:27.480Z,63.90
2019-04-14T20:55:55.266Z,64.00
2019-04-14T20:58:23.041Z,64.50
2019-04-14T21:00:50.392Z,64.70
2019-04-14T21:03:36.834Z,65.00
2019-04-14T21:06:26.785Z,64.60
2019-04-14T21:09:25.669Z,65.50
2019-04-14T21:12:03.535Z,65.60
2019-04-14T21:14:50.408Z,65.30
2019-04-14T21:17:36.305Z,65.60
2019-04-14T21:20:10.215Z,66.10
2019-04-14T21:23:00.042Z,66.50
2019-04-14T21:26:00.777Z,66.30
2019-04-14T21:28:50.614Z,66.80
2019-04-14T21:31:33.734Z,67.40
2019-04-14T21:34:26.529Z,66.90
2019-04-14T21:37:05.704Z,66.70
2019-04-14T21:40:01.453Z,66.70
2019-04-14T21:42:28.816Z,67.20
2019-04-14T21:44:56.253Z,66.50
2019-04-14T21:47:24.145Z,67.10
2019-04-14T21:49:51.603Z,66.90
2019-04-14T21:52:39.941Z,66.70
2019-04-14T21:55:07.723Z,67.20
2019-04-14T21:57:53.280Z,67.40
2019-04-14T22:01:08.794Z,67.50
2019-04-14T22:03:44.656Z,67.20
2019-04-14T22:06:23.843Z,67.60
2019-04-14T22:08:52.414Z,66.90
2019-04-14T22:11:21.932Z,67.20
2019-04-14T22:13:51.090Z,67.60
2019-04-14T22:16:19.098Z,67.90
2019-04-14T22:18:46.479Z,67.90
2019-04-14T22:21:14.149Z,68.10
2019-04-14T22:23:41.495Z,67.70
2019-04-14T22:26:08.929Z,67.20
2019-04-14T22:28:36.359Z,67.10
2019-04-14T22:31:04.065Z,67.30
2019-04-14T22:33:31.404Z,67.20
2019-04-14T22:35:58.786Z,67.10
2019-04-14T22:38:26.133Z,67.40
2019-04-14T22:40:53.554Z,68.50
2019-04-14T22:43:20.975Z,68.60
2019-04-14T22:45:48.431Z,68.50
2019-04-14T22:48:15.729Z,68.40
2019-04-14T22:50:43.097Z,68.80
2019-04-14T22:53:10.411Z,68.60
2019-04-14T22:55:37.823Z,69.00
2019-04-14T22:58:05.175Z,68.80
2019-04-14T23:00:51.889Z,69.00
2019-04-14T23:03:38.719Z,68.60
2019-04-14T23:06:27.928Z,68.20
2019-04-14T23:08:59.741Z,68.80
2019-04-14T23:11:46.609Z,69.30
2019-04-14T23:14:32.415Z,69.20
2019-04-14T23:17:18.141Z,69.50
2019-04-14T23:19:54.033Z,69.20
2019-04-14T23:22:40.943Z,69.60
2019-04-14T23:25:08.478Z,69.20
2019-04-14T23:27:35.824Z,68.90
2019-04-14T23:30:03.551Z,68.90
2019-04-14T23:32:30.912Z,69.10
2019-04-14T23:34:58.328Z,68.80
2019-04-14T23:37:25.716Z,68.80
2019-04-14T23:39:53.069Z,69.30
2019-04-14T23:42:20.426Z,69.60
2019-04-14T23:44:48.235Z,69.30
2019-04-14T23:47:15.576Z,69.20
2019-04-14T23:49:43.087Z,69.30
2019-04-14T23:52:10.471Z,69.90
2019-04-14T23:54:37.797Z,70.10
2019-04-14T23:57:06.544Z,70.00
2019-04-14T23:59:34.384Z,69.80
